Charter Quote
Worldwide +44-20-3874-8091 Call
Select Language Lang
SAFETY RELIABILITY EXPERIENCE

Safdarjung Airport (VIDD) - Jet Charter Services

AIRPORT INFORMATION
ICAOVIDD
LOCATIONDelhi (New Delhi), India
FACILITY TYPEAIRPORT
Runway Length (ft) Width (ft) Surface Type Elevation (ft)
30/12 4520 150 ASP 695.54098

At Paramount Business Jets you can hire chartered private jets to and from Safdarjung Airport with as little as 4 hours of notice. All flights booked via Paramount Business Jets are operated by certified direct air carriers that meet and exceed the FAA part 135 and 121 protocol or a foreign equivalent safety authority. Furthermore, Paramount Business Jets subscribes to ARGUS for their third party safety checks of operators, aircraft, and crews prior each and every flight to and from Safdarjung Airport and worldwide.

  • Quote a trip using Safdarjung Airport or call us 24/7 - 365 days a year at +44-20-3874-8091.
Questions? Call +44-20-3874-8091

METAR Weather Data at Safdarjung Airport, VIDD

STATIONVIDD
OBSERVEDTue Feb 19, 10:00 UTC
NOWTue Feb 19, 10:28 UTC
AGE28 min ago
WINDcalm
VISIBILITY4 miles
CONDITIONSsmoke
CLOUDSmostly cloudy
TEMP75°F (24°C)
DEWPT57°F (14°C)
HUMIDITY54%
BAROMETER1013 hPa (29.91 in Hg)
METARVIDD 191000Z 00000KT 2500 FU SCT040 BKN100 24/14 Q1013 NOSIG

Call us on +44-20-3874-8091 (24 Hours) to Hire a Private Jet or Get a Quick Quote.

Find Airports Near any Location

Processing
...